Time;durP1;ratioP1;P1;durP2;ratioP2;P2;SDS_P1;SDS_P2;PMS_P1;PMS_P2;Temp;Humidity;BMP_temperature;BMP_pressure;BME280_temperature;BME280_humidity;BME280_pressure;Samples;Min_cycle;Max_cycle;Signal;HPM_P1;HPM_P2
2021/08/08 00:00:59;;;;;;;4.53;2.00;;;;;;;;;;5036119;28;20017;-70
2021/08/08 00:03:25;;;;;;;4.60;1.80;;;;;;;;;;5034589;28;20402;-70
2021/08/08 00:05:52;;;;;;;2.25;1.75;;;;;;;;;;5035447;28;20061;-70
2021/08/08 00:08:18;;;;;;;2.90;1.70;;;;;;;;;;5035835;28;20021;-70
2021/08/08 00:10:44;;;;;;;5.72;2.08;;;;;;;;;;5034661;28;20048;-70
2021/08/08 00:13:10;;;;;;;3.45;1.80;;;;;;;;;;5035554;28;20022;-69
2021/08/08 00:15:38;;;;;;;6.75;2.10;;;;;;;;;;5035475;28;20486;-69
2021/08/08 00:18:05;;;;;;;3.78;2.08;;;;;;;;;;5035392;28;20075;-70
2021/08/08 00:20:32;;;;;;;3.13;1.90;;;;;;;;;;5035543;28;20425;-69
2021/08/08 00:22:58;;;;;;;4.38;1.90;;;;;;;;;;5035450;28;20029;-70
2021/08/08 00:25:24;;;;;;;5.60;2.25;;;;;;;;;;5035410;28;20053;-70
2021/08/08 00:27:50;;;;;;;5.68;2.05;;;;;;;;;;5035247;28;20068;-70
2021/08/08 00:30:17;;;;;;;11.07;1.88;;;;;;;;;;5035441;28;20028;-71
2021/08/08 00:32:43;;;;;;;5.95;1.90;;;;;;;;;;5035131;28;20430;-69
2021/08/08 00:35:10;;;;;;;4.70;2.03;;;;;;;;;;5035456;28;20036;-70
2021/08/08 00:37:37;;;;;;;2.65;1.75;;;;;;;;;;5033920;28;20009;-70
2021/08/08 00:40:04;;;;;;;4.18;1.80;;;;;;;;;;5034934;28;20029;-69
2021/08/08 00:42:30;;;;;;;2.47;1.58;;;;;;;;;;5034882;28;20025;-69
2021/08/08 00:44:56;;;;;;;3.75;2.05;;;;;;;;;;5035174;28;20026;-70
2021/08/08 00:47:22;;;;;;;5.25;2.05;;;;;;;;;;5034957;28;20458;-70
2021/08/08 00:49:47;;;;;;;3.17;1.70;;;;;;;;;;5034992;28;20071;-70
2021/08/08 00:52:14;;;;;;;2.58;2.10;;;;;;;;;;5035057;28;20032;-70
2021/08/08 00:54:40;;;;;;;6.75;2.10;;;;;;;;;;5035056;28;20026;-70
2021/08/08 00:57:06;;;;;;;5.18;1.90;;;;;;;;;;5034121;28;20481;-70
2021/08/08 00:59:32;;;;;;;5.50;2.22;;;;;;;;;;5034701;28;20043;-70
2021/08/08 01:02:00;;;;;;;4.65;2.83;;;;;;;;;;5034711;28;20148;-70
2021/08/08 01:04:27;;;;;;;2.63;2.10;;;;;;;;;;5034590;28;20032;-70
2021/08/08 01:06:57;;;;;;;4.82;1.90;;;;;;;;;;5034545;28;20125;-70
2021/08/08 01:09:24;;;;;;;3.15;2.13;;;;;;;;;;5034604;28;20014;-70
2021/08/08 01:11:52;;;;;;;3.15;1.90;;;;;;;;;;5034500;28;20056;-70
2021/08/08 01:14:19;;;;;;;7.95;2.35;;;;;;;;;;5034576;28;20413;-70
2021/08/08 01:16:45;;;;;;;2.67;2.00;;;;;;;;;;5034331;28;20024;-70
2021/08/08 01:19:11;;;;;;;3.30;2.05;;;;;;;;;;5034558;28;20021;-70
2021/08/08 01:21:38;;;;;;;4.30;2.33;;;;;;;;;;5034169;28;20474;-70
2021/08/08 01:24:05;;;;;;;4.55;1.80;;;;;;;;;;5032901;28;20017;-69
2021/08/08 01:26:33;;;;;;;2.75;2.00;;;;;;;;;;5034040;28;20064;-69
2021/08/08 01:28:59;;;;;;;3.38;2.03;;;;;;;;;;5034523;28;20026;-70
2021/08/08 01:31:25;;;;;;;2.90;2.05;;;;;;;;;;5034401;28;20032;-70
2021/08/08 01:33:51;;;;;;;7.32;2.35;;;;;;;;;;5034005;28;20100;-70
2021/08/08 01:36:18;;;;;;;3.88;2.30;;;;;;;;;;5034178;28;20040;-70
2021/08/08 01:38:48;;;;;;;2.28;1.80;;;;;;;;;;5033850;28;20466;-69
2021/08/08 01:41:15;;;;;;;2.30;1.88;;;;;;;;;;5034143;28;20009;-70
2021/08/08 01:43:44;;;;;;;4.00;1.70;;;;;;;;;;5033775;28;20021;-70
2021/08/08 01:46:11;;;;;;;3.57;2.37;;;;;;;;;;5032515;28;20041;-70
2021/08/08 01:48:38;;;;;;;2.70;1.95;;;;;;;;;;5033740;28;20250;-70
2021/08/08 01:51:05;;;;;;;5.45;2.25;;;;;;;;;;5032915;28;20072;-70
2021/08/08 01:53:30;;;;;;;3.42;2.22;;;;;;;;;;5033774;28;20107;-69
2021/08/08 01:55:56;;;;;;;5.07;2.03;;;;;;;;;;5033495;28;20108;-70
2021/08/08 01:58:27;;;;;;;3.28;2.08;;;;;;;;;;5033873;28;20028;-70
2021/08/08 02:00:54;;;;;;;6.63;2.22;;;;;;;;;;5033881;28;20021;-70
2021/08/08 02:03:20;;;;;;;2.40;1.73;;;;;;;;;;5033747;28;20025;-70
2021/08/08 02:05:47;;;;;;;3.78;2.15;;;;;;;;;;5033280;28;20049;-70
2021/08/08 02:08:13;;;;;;;4.45;1.85;;;;;;;;;;5032508;28;20029;-70
2021/08/08 02:10:38;;;;;;;5.95;2.17;;;;;;;;;;5033301;28;20031;-70
2021/08/08 02:13:04;;;;;;;6.03;2.20;;;;;;;;;;5033453;28;20018;-70
2021/08/08 02:15:31;;;;;;;2.97;2.08;;;;;;;;;;5033337;28;20374;-69
2021/08/08 02:17:57;;;;;;;4.78;1.88;;;;;;;;;;5033429;28;20029;-71
2021/08/08 02:20:23;;;;;;;6.43;1.83;;;;;;;;;;5033184;28;20021;-70
2021/08/08 02:22:48;;;;;;;3.75;2.13;;;;;;;;;;5033052;28;20025;-70
2021/08/08 02:25:14;;;;;;;2.50;2.10;;;;;;;;;;5033282;28;20083;-70
2021/08/08 02:27:41;;;;;;;5.50;2.15;;;;;;;;;;5033005;28;20101;-70
2021/08/08 02:30:08;;;;;;;2.42;1.67;;;;;;;;;;5033291;28;20076;-70
2021/08/08 02:32:35;;;;;;;5.28;2.17;;;;;;;;;;5033017;28;20040;-70
2021/08/08 02:35:02;;;;;;;3.70;2.42;;;;;;;;;;5033095;28;20413;-70
2021/08/08 02:37:28;;;;;;;5.43;1.77;;;;;;;;;;5032800;28;20029;-70
2021/08/08 02:39:54;;;;;;;5.35;2.00;;;;;;;;;;5032742;28;20014;-70
2021/08/08 02:42:21;;;;;;;4.97;2.35;;;;;;;;;;5033000;28;20071;-70
2021/08/08 02:44:47;;;;;;;5.38;2.28;;;;;;;;;;5033060;28;20040;-69
2021/08/08 02:47:13;;;;;;;3.15;1.80;;;;;;;;;;5033030;28;20108;-70
2021/08/08 02:49:39;;;;;;;4.40;2.10;;;;;;;;;;5032759;28;20438;-70
2021/08/08 02:52:06;;;;;;;2.15;1.92;;;;;;;;;;5032542;28;20024;-69
2021/08/08 02:54:33;;;;;;;3.78;1.83;;;;;;;;;;5032634;28;20022;-70
2021/08/08 02:56:59;;;;;;;3.90;2.30;;;;;;;;;;5032699;28;20160;-70
2021/08/08 02:59:25;;;;;;;6.30;1.98;;;;;;;;;;5033109;28;20386;-70
2021/08/08 03:01:51;;;;;;;3.88;2.00;;;;;;;;;;5032602;28;20021;-70
2021/08/08 03:04:17;;;;;;;3.45;1.88;;;;;;;;;;5032770;28;20466;-70
2021/08/08 03:06:47;;;;;;;3.30;2.22;;;;;;;;;;5032277;28;20494;-70
2021/08/08 03:09:13;;;;;;;3.03;2.03;;;;;;;;;;5032690;28;20105;-70
2021/08/08 03:11:51;;;;;;;7.25;2.00;;;;;;;;;;5032746;28;20018;-70
2021/08/08 03:14:18;;;;;;;6.20;2.15;;;;;;;;;;5032718;28;20021;-70
2021/08/08 03:16:44;;;;;;;2.55;1.98;;;;;;;;;;5032513;28;20052;-70
2021/08/08 03:19:11;;;;;;;3.30;2.03;;;;;;;;;;5033393;28;20056;-70
2021/08/08 03:21:38;;;;;;;3.08;1.83;;;;;;;;;;5036485;28;20049;-70
2021/08/08 03:24:05;;;;;;;2.92;2.15;;;;;;;;;;5036411;28;20010;-70
2021/08/08 03:26:31;;;;;;;4.97;1.85;;;;;;;;;;5036466;28;20033;-70
2021/08/08 03:28:56;;;;;;;3.08;2.15;;;;;;;;;;5036591;28;20067;-70
2021/08/08 03:31:23;;;;;;;3.88;1.98;;;;;;;;;;5036513;28;20029;-70
2021/08/08 03:33:49;;;;;;;5.10;1.90;;;;;;;;;;5036386;28;20026;-69
2021/08/08 03:36:16;;;;;;;4.43;2.58;;;;;;;;;;5036217;28;20421;-70
2021/08/08 03:38:41;;;;;;;3.75;2.10;;;;;;;;;;5036458;28;20056;-70
2021/08/08 03:41:07;;;;;;;2.92;2.00;;;;;;;;;;5036192;28;20501;-70
2021/08/08 03:43:34;;;;;;;3.25;2.05;;;;;;;;;;5036041;28;20104;-70
2021/08/08 03:46:00;;;;;;;6.68;2.30;;;;;;;;;;5036272;28;20417;-70
2021/08/08 03:48:26;;;;;;;4.60;2.17;;;;;;;;;;5035947;28;20013;-70
2021/08/08 03:50:51;;;;;;;5.55;2.10;;;;;;;;;;5036119;28;20028;-70
2021/08/08 03:53:17;;;;;;;4.85;2.63;;;;;;;;;;5036187;28;20389;-70
2021/08/08 03:55:44;;;;;;;3.17;2.30;;;;;;;;;;5036074;28;20103;-70
2021/08/08 03:58:10;;;;;;;6.60;2.47;;;;;;;;;;5035714;28;20106;-70
2021/08/08 04:00:35;;;;;;;4.97;2.25;;;;;;;;;;5035651;28;20025;-70
2021/08/08 04:03:01;;;;;;;4.60;2.42;;;;;;;;;;5035746;28;20017;-70
2021/08/08 04:05:27;;;;;;;7.38;2.80;;;;;;;;;;5035604;28;20057;-70
2021/08/08 04:07:52;;;;;;;5.65;2.45;;;;;;;;;;5035749;28;20013;-69
2021/08/08 04:10:18;;;;;;;6.45;2.45;;;;;;;;;;5035871;28;20391;-70
2021/08/08 04:12:44;;;;;;;6.43;2.60;;;;;;;;;;5035610;28;20017;-70
2021/08/08 04:15:10;;;;;;;4.55;2.30;;;;;;;;;;5035474;28;20060;-70
2021/08/08 04:17:36;;;;;;;7.13;2.10;;;;;;;;;;5035435;28;20023;-70
2021/08/08 04:20:03;;;;;;;6.70;2.15;;;;;;;;;;5035326;28;20048;-70
2021/08/08 04:22:29;;;;;;;7.63;2.55;;;;;;;;;;5035326;28;20676;-70
2021/08/08 04:24:54;;;;;;;6.22;2.42;;;;;;;;;;5035359;28;20067;-70
2021/08/08 04:27:21;;;;;;;6.97;2.80;;;;;;;;;;5035413;28;20482;-70
2021/08/08 04:29:47;;;;;;;3.63;2.75;;;;;;;;;;5034016;28;20128;-70
2021/08/08 04:32:13;;;;;;;3.63;2.28;;;;;;;;;;5034023;28;20033;-70
2021/08/08 04:34:39;;;;;;;10.18;2.50;;;;;;;;;;5034101;28;20028;-70
2021/08/08 04:37:05;;;;;;;5.20;2.80;;;;;;;;;;5035363;28;20022;-70
2021/08/08 04:39:32;;;;;;;7.82;2.60;;;;;;;;;;5035169;28;20013;-70
2021/08/08 04:41:58;;;;;;;2.97;2.22;;;;;;;;;;5035098;28;20482;-70
2021/08/08 04:44:24;;;;;;;5.28;2.35;;;;;;;;;;5035024;28;20022;-70
2021/08/08 04:46:50;;;;;;;7.70;2.60;;;;;;;;;;5034849;28;20026;-69
2021/08/08 04:49:16;;;;;;;5.38;2.47;;;;;;;;;;5034912;28;20156;-70
2021/08/08 04:51:42;;;;;;;6.70;2.50;;;;;;;;;;5034816;28;20021;-70
2021/08/08 04:54:09;;;;;;;3.83;2.10;;;;;;;;;;5034866;28;20017;-70
2021/08/08 04:56:35;;;;;;;6.80;3.00;;;;;;;;;;5034934;28;20108;-70
2021/08/08 04:59:01;;;;;;;4.05;1.90;;;;;;;;;;5034951;28;20017;-70
2021/08/08 05:01:27;;;;;;;5.03;2.30;;;;;;;;;;5034783;28;20538;-69
2021/08/08 05:03:53;;;;;;;3.85;2.42;;;;;;;;;;5034241;28;20049;-70
2021/08/08 05:06:20;;;;;;;7.68;2.45;;;;;;;;;;5034482;28;20447;-70
2021/08/08 05:08:46;;;;;;;3.38;2.30;;;;;;;;;;5034751;28;20017;-70
2021/08/08 05:11:18;;;;;;;5.88;2.47;;;;;;;;;;5034702;28;20020;-70
2021/08/08 05:13:44;;;;;;;4.00;2.15;;;;;;;;;;5034706;28;20036;-70
2021/08/08 05:16:10;;;;;;;4.35;2.60;;;;;;;;;;5034395;28;20013;-70
2021/08/08 05:18:36;;;;;;;3.45;2.67;;;;;;;;;;5034362;28;20032;-70
2021/08/08 05:21:02;;;;;;;7.30;2.78;;;;;;;;;;5034430;28;20104;-71
2021/08/08 05:23:27;;;;;;;5.57;2.95;;;;;;;;;;5034181;28;20532;-71
2021/08/08 05:25:58;;;;;;;6.30;2.50;;;;;;;;;;5034039;28;20037;-71
2021/08/08 05:28:24;;;;;;;3.83;2.50;;;;;;;;;;5034701;28;20064;-71
2021/08/08 05:30:50;;;;;;;5.80;2.70;;;;;;;;;;5034234;28;20029;-69
2021/08/08 05:33:16;;;;;;;3.28;2.30;;;;;;;;;;5034299;28;20018;-71
2021/08/08 05:35:42;;;;;;;6.85;2.40;;;;;;;;;;5033888;28;20025;-71
2021/08/08 05:38:08;;;;;;;5.22;3.20;;;;;;;;;;5033852;28;20021;-71
2021/08/08 05:40:34;;;;;;;6.82;2.60;;;;;;;;;;5034002;28;20040;-70
2021/08/08 05:43:00;;;;;;;5.78;3.58;;;;;;;;;;5032674;28;20025;-71
2021/08/08 05:45:26;;;;;;;8.20;2.83;;;;;;;;;;5033881;28;20037;-71
2021/08/08 05:47:52;;;;;;;5.75;3.17;;;;;;;;;;5033419;28;20581;-70
2021/08/08 05:50:18;;;;;;;6.03;2.60;;;;;;;;;;5033781;28;20044;-71
2021/08/08 05:52:48;;;;;;;2.58;2.20;;;;;;;;;;5033939;28;20026;-71
2021/08/08 05:55:15;;;;;;;5.43;2.53;;;;;;;;;;5034145;28;20108;-72
2021/08/08 05:57:42;;;;;;;4.80;2.53;;;;;;;;;;5033440;28;20136;-72
2021/08/08 06:00:09;;;;;;;5.82;2.63;;;;;;;;;;5033304;28;20029;-71
2021/08/08 06:02:34;;;;;;;7.57;2.75;;;;;;;;;;5032158;28;20091;-70
2021/08/08 06:05:00;;;;;;;4.93;2.40;;;;;;;;;;5033302;28;20049;-71
2021/08/08 06:07:27;;;;;;;5.22;2.38;;;;;;;;;;5033759;28;20028;-71
2021/08/08 06:09:54;;;;;;;4.63;2.65;;;;;;;;;;5033448;28;20424;-71
2021/08/08 06:12:20;;;;;;;7.25;3.00;;;;;;;;;;5033308;28;20076;-71
2021/08/08 06:14:46;;;;;;;6.85;2.97;;;;;;;;;;5033196;28;20072;-71
2021/08/08 06:17:12;;;;;;;5.32;2.30;;;;;;;;;;5033426;28;20025;-71
2021/08/08 06:19:38;;;;;;;5.38;2.63;;;;;;;;;;5033185;28;20463;-71
2021/08/08 06:22:04;;;;;;;6.18;2.83;;;;;;;;;;5032968;28;20056;-71
2021/08/08 06:24:30;;;;;;;4.40;2.50;;;;;;;;;;5033067;28;20378;-71
2021/08/08 06:26:56;;;;;;;3.55;2.15;;;;;;;;;;5033472;28;20075;-71
2021/08/08 06:29:22;;;;;;;4.63;2.30;;;;;;;;;;5033320;28;20017;-70
2021/08/08 06:31:48;;;;;;;6.10;2.78;;;;;;;;;;5032922;28;20079;-71
2021/08/08 06:34:14;;;;;;;4.68;2.28;;;;;;;;;;5032890;28;20064;-71
2021/08/08 06:36:40;;;;;;;4.25;2.20;;;;;;;;;;5032889;28;20021;-71
2021/08/08 06:39:06;;;;;;;4.20;2.35;;;;;;;;;;5033144;28;20022;-71
2021/08/08 06:41:32;;;;;;;3.83;2.42;;;;;;;;;;5032831;28;20027;-71
2021/08/08 06:43:59;;;;;;;4.25;2.28;;;;;;;;;;5031567;28;20014;-71
2021/08/08 06:46:24;;;;;;;6.80;2.15;;;;;;;;;;5032982;28;20433;-71
2021/08/08 06:48:50;;;;;;;3.70;2.28;;;;;;;;;;5032832;28;20025;-70
2021/08/08 06:51:17;;;;;;;3.00;2.20;;;;;;;;;;5033057;28;20032;-71
2021/08/08 06:53:42;;;;;;;4.90;2.45;;;;;;;;;;5032047;28;20071;-71
2021/08/08 06:56:08;;;;;;;4.20;2.22;;;;;;;;;;5032608;28;20025;-71
2021/08/08 06:58:34;;;;;;;5.47;2.38;;;;;;;;;;5032847;28;20018;-70
2021/08/08 07:01:00;;;;;;;5.82;2.53;;;;;;;;;;5032880;28;20025;-72
2021/08/08 07:03:26;;;;;;;4.07;2.17;;;;;;;;;;5032618;28;20159;-71
2021/08/08 07:05:52;;;;;;;7.47;2.92;;;;;;;;;;5032080;28;20049;-71
2021/08/08 07:08:18;;;;;;;3.10;2.17;;;;;;;;;;5032664;28;20017;-71
2021/08/08 07:10:45;;;;;;;5.00;2.40;;;;;;;;;;5032693;28;20029;-71
2021/08/08 07:13:10;;;;;;;10.20;2.88;;;;;;;;;;5032808;28;20057;-70
2021/08/08 07:15:36;;;;;;;6.72;2.00;;;;;;;;;;5032238;28;20049;-71
2021/08/08 07:18:02;;;;;;;3.83;1.98;;;;;;;;;;5032633;28;20030;-71
2021/08/08 07:20:29;;;;;;;8.02;2.13;;;;;;;;;;5032466;28;20104;-70
2021/08/08 07:22:55;;;;;;;3.45;1.90;;;;;;;;;;5032439;28;20022;-71
2021/08/08 07:25:20;;;;;;;3.97;2.00;;;;;;;;;;5032372;28;20022;-71
2021/08/08 07:27:45;;;;;;;4.45;2.17;;;;;;;;;;5032155;28;20025;-70
2021/08/08 07:30:12;;;;;;;2.42;1.83;;;;;;;;;;5032147;28;20045;-70
2021/08/08 07:32:38;;;;;;;2.83;1.90;;;;;;;;;;5032473;28;20096;-70
2021/08/08 07:35:03;;;;;;;2.35;1.63;;;;;;;;;;5032399;28;20439;-70
2021/08/08 07:37:30;;;;;;;4.68;2.15;;;;;;;;;;5032469;28;20021;-70
2021/08/08 07:39:56;;;;;;;3.30;2.10;;;;;;;;;;5032205;28;20113;-70
2021/08/08 07:42:22;;;;;;;4.22;2.20;;;;;;;;;;5032628;28;20096;-70
2021/08/08 07:44:48;;;;;;;4.50;1.70;;;;;;;;;;5032232;28;20443;-70
2021/08/08 07:47:16;;;;;;;4.63;1.73;;;;;;;;;;5032759;28;20021;-71
2021/08/08 07:49:42;;;;;;;3.63;2.08;;;;;;;;;;5032337;28;20040;-70
2021/08/08 07:52:09;;;;;;;3.28;1.80;;;;;;;;;;5031943;28;20055;-71
2021/08/08 07:54:35;;;;;;;4.80;1.90;;;;;;;;;;5032088;28;20013;-71
2021/08/08 07:57:02;;;;;;;6.75;1.83;;;;;;;;;;5032146;28;20025;-71
2021/08/08 07:59:28;;;;;;;4.35;1.90;;;;;;;;;;5032119;28;20116;-71
2021/08/08 08:01:54;;;;;;;3.60;1.70;;;;;;;;;;5031969;28;20423;-70
2021/08/08 08:04:20;;;;;;;3.80;1.60;;;;;;;;;;5032022;28;20156;-71
2021/08/08 08:06:46;;;;;;;2.67;1.70;;;;;;;;;;5035440;28;20502;-71
2021/08/08 08:09:12;;;;;;;2.92;1.98;;;;;;;;;;5035709;28;20017;-71
2021/08/08 08:11:42;;;;;;;2.25;1.83;;;;;;;;;;5035458;28;20036;-71
2021/08/08 08:14:09;;;;;;;4.47;1.60;;;;;;;;;;5035543;28;20029;-70
2021/08/08 08:16:35;;;;;;;4.28;1.90;;;;;;;;;;5035389;28;20014;-70
2021/08/08 08:19:02;;;;;;;6.05;1.88;;;;;;;;;;5035722;28;20028;-70
2021/08/08 08:21:28;;;;;;;4.65;1.75;;;;;;;;;;5035375;28;20390;-70
2021/08/08 08:23:54;;;;;;;3.58;1.70;;;;;;;;;;5035098;28;20107;-70
2021/08/08 08:26:20;;;;;;;2.25;1.77;;;;;;;;;;5035549;28;20478;-70
2021/08/08 08:28:46;;;;;;;5.38;2.05;;;;;;;;;;5035072;28;20026;-71
2021/08/08 08:31:12;;;;;;;2.35;1.80;;;;;;;;;;5035559;28;20017;-71
2021/08/08 08:33:38;;;;;;;4.28;1.88;;;;;;;;;;5034925;28;20044;-69
2021/08/08 08:36:04;;;;;;;3.15;1.90;;;;;;;;;;5035175;28;20026;-70
2021/08/08 08:38:31;;;;;;;4.15;1.92;;;;;;;;;;5034967;28;20038;-71
2021/08/08 08:40:57;;;;;;;3.10;1.70;;;;;;;;;;5035167;28;20084;-70
2021/08/08 08:43:25;;;;;;;4.38;1.52;;;;;;;;;;5034909;28;20478;-70
2021/08/08 08:45:51;;;;;;;3.95;1.67;;;;;;;;;;5034833;28;20147;-70
2021/08/08 08:48:18;;;;;;;2.75;1.73;;;;;;;;;;5034866;28;20022;-70
2021/08/08 08:50:44;;;;;;;9.07;2.20;;;;;;;;;;5034907;28;20025;-70
2021/08/08 08:53:11;;;;;;;4.72;1.70;;;;;;;;;;5034777;28;20025;-71
2021/08/08 08:55:37;;;;;;;4.25;2.17;;;;;;;;;;5034868;28;20448;-70
2021/08/08 08:58:04;;;;;;;4.30;1.60;;;;;;;;;;5034807;28;20018;-71
2021/08/08 09:00:29;;;;;;;5.70;2.13;;;;;;;;;;5034553;28;20040;-71
2021/08/08 09:02:56;;;;;;;5.93;1.80;;;;;;;;;;5034875;28;20029;-70
2021/08/08 09:05:22;;;;;;;4.13;1.70;;;;;;;;;;5034383;28;20121;-70
2021/08/08 09:07:48;;;;;;;3.17;2.25;;;;;;;;;;5034476;28;20022;-70
2021/08/08 09:10:14;;;;;;;4.45;1.77;;;;;;;;;;5034410;28;20017;-70
2021/08/08 09:12:40;;;;;;;2.30;1.77;;;;;;;;;;5032375;28;20025;-71
2021/08/08 09:15:06;;;;;;;8.18;2.00;;;;;;;;;;5034604;28;20029;-71
2021/08/08 09:17:38;;;;;;;1.67;1.48;;;;;;;;;;5033900;28;20489;-71
2021/08/08 09:20:06;;;;;;;3.05;1.63;;;;;;;;;;5033170;28;20105;-71
2021/08/08 09:22:32;;;;;;;1.65;1.40;;;;;;;;;;5033183;28;20021;-71
2021/08/08 09:24:57;;;;;;;3.13;1.92;;;;;;;;;;5034173;28;20029;-70
2021/08/08 09:27:37;;;;;;;1.98;1.70;;;;;;;;;;5034555;28;20021;-71
2021/08/08 09:30:05;;;;;;;4.07;1.80;;;;;;;;;;5034315;28;20028;-71
2021/08/08 09:32:32;;;;;;;3.63;1.85;;;;;;;;;;5034251;28;20521;-71
2021/08/08 09:35:05;;;;;;;3.00;1.90;;;;;;;;;;5034127;28;20079;-71
2021/08/08 09:37:32;;;;;;;2.60;1.60;;;;;;;;;;5034146;28;20335;-70
2021/08/08 09:39:58;;;;;;;3.03;1.70;;;;;;;;;;5033815;28;20017;-71
2021/08/08 09:42:25;;;;;;;4.18;1.70;;;;;;;;;;5034114;28;20016;-71
2021/08/08 09:44:56;;;;;;;5.07;1.70;;;;;;;;;;5033991;28;20021;-71
2021/08/08 09:47:23;;;;;;;3.28;1.45;;;;;;;;;;5034064;28;20030;-71
2021/08/08 09:50:00;;;;;;;1.88;1.65;;;;;;;;;;5033695;28;20028;-71
2021/08/08 09:52:27;;;;;;;4.90;1.70;;;;;;;;;;5033668;28;20022;-71
2021/08/08 09:54:53;;;;;;;2.33;1.70;;;;;;;;;;5033869;28;20082;-71
2021/08/08 09:57:19;;;;;;;4.45;1.63;;;;;;;;;;5034200;28;20083;-71
2021/08/08 09:59:45;;;;;;;4.22;2.00;;;;;;;;;;5033514;28;20022;-71
2021/08/08 10:02:16;;;;;;;1.63;1.42;;;;;;;;;;5033723;28;20082;-71
2021/08/08 10:04:42;;;;;;;3.15;1.70;;;;;;;;;;5033485;28;20020;-70
2021/08/08 10:07:08;;;;;;;2.55;1.70;;;;;;;;;;5033624;28;20022;-71
2021/08/08 10:09:35;;;;;;;5.75;1.50;;;;;;;;;;5033450;28;20109;-71
2021/08/08 10:12:07;;;;;;;4.60;1.80;;;;;;;;;;5033413;28;20021;-71
2021/08/08 10:14:33;;;;;;;4.10;2.00;;;;;;;;;;5033441;28;20017;-72
2021/08/08 10:16:59;;;;;;;3.65;1.65;;;;;;;;;;5033442;28;20014;-71
2021/08/08 10:19:26;;;;;;;7.60;1.83;;;;;;;;;;5033129;28;20021;-71
2021/08/08 10:21:51;;;;;;;4.07;1.85;;;;;;;;;;5033456;28;20449;-71
2021/08/08 10:24:18;;;;;;;52.35;3.80;;;;;;;;;;5033427;28;20049;-71
2021/08/08 10:26:43;;;;;;;3.88;1.60;;;;;;;;;;5033039;28;20478;-71
2021/08/08 10:29:10;;;;;;;3.03;1.80;;;;;;;;;;5032340;28;20071;-71
2021/08/08 10:31:37;;;;;;;2.58;1.63;;;;;;;;;;5033272;28;20026;-71
2021/08/08 10:34:04;;;;;;;6.68;1.73;;;;;;;;;;5033042;28;20018;-70
2021/08/08 10:36:30;;;;;;;3.17;1.70;;;;;;;;;;5033454;28;20068;-70
2021/08/08 10:39:15;;;;;;;2.75;1.60;;;;;;;;;;5033489;28;20021;-71
2021/08/08 10:41:42;;;;;;;5.60;1.92;;;;;;;;;;5031611;28;20112;-70
2021/08/08 10:44:08;;;;;;;3.85;1.77;;;;;;;;;;5032833;28;20057;-70
2021/08/08 10:46:48;;;;;;;3.65;1.60;;;;;;;;;;5032642;28;20493;-70
2021/08/08 10:49:14;;;;;;;2.95;1.77;;;;;;;;;;5032911;28;20402;-71
2021/08/08 10:51:57;;;;;;;3.55;1.80;;;;;;;;;;5032707;28;20022;-70
2021/08/08 10:54:22;;;;;;;4.05;1.83;;;;;;;;;;5032944;28;20022;-71
2021/08/08 10:56:48;;;;;;;4.90;1.58;;;;;;;;;;5032599;28;20025;-71
2021/08/08 10:59:16;;;;;;;2.97;1.40;;;;;;;;;;5032916;28;20072;-71
2021/08/08 11:01:43;;;;;;;6.43;2.03;;;;;;;;;;5032799;28;20033;-69
2021/08/08 11:04:09;;;;;;;3.85;1.45;;;;;;;;;;5031361;28;20113;-70
2021/08/08 11:06:36;;;;;;;2.53;1.60;;;;;;;;;;5032373;28;20060;-71
2021/08/08 11:09:04;;;;;;;4.90;1.90;;;;;;;;;;5032755;28;20014;-70
2021/08/08 11:11:34;;;;;;;3.87;1.67;;;;;;;;;;5032586;28;20029;-70
2021/08/08 11:14:14;;;;;;;3.13;1.70;;;;;;;;;;5032642;28;20025;-70
2021/08/08 11:16:43;;;;;;;4.30;1.63;;;;;;;;;;5032458;28;20099;-71
2021/08/08 11:19:09;;;;;;;4.75;1.60;;;;;;;;;;5032668;28;20062;-70
2021/08/08 11:21:35;;;;;;;4.82;1.70;;;;;;;;;;5032425;28;20021;-71
2021/08/08 11:24:02;;;;;;;2.63;1.48;;;;;;;;;;5032255;28;20018;-70
2021/08/08 11:26:28;;;;;;;3.42;1.90;;;;;;;;;;5032190;28;20458;-71
2021/08/08 11:28:58;;;;;;;3.88;1.85;;;;;;;;;;5032433;28;20101;-71
2021/08/08 11:31:28;;;;;;;5.85;1.80;;;;;;;;;;5032553;28;20020;-71
2021/08/08 11:34:07;;;;;;;4.63;1.95;;;;;;;;;;5032173;28;20017;-71
2021/08/08 11:36:35;;;;;;;2.58;1.63;;;;;;;;;;5032263;28;20014;-70
2021/08/08 11:39:03;;;;;;;4.63;1.70;;;;;;;;;;5032340;28;20036;-71
2021/08/08 11:41:29;;;;;;;30.73;2.90;;;;;;;;;;5035505;28;20493;-71
2021/08/08 11:44:03;;;;;;;3.83;1.58;;;;;;;;;;5036252;28;20378;-69
2021/08/08 11:46:30;;;;;;;2.58;1.80;;;;;;;;;;5036002;28;20033;-69
2021/08/08 11:48:55;;;;;;;5.85;1.80;;;;;;;;;;5036157;28;20017;-69
2021/08/08 11:51:21;;;;;;;5.30;1.90;;;;;;;;;;5036048;28;20025;-69
2021/08/08 11:53:52;;;;;;;3.47;1.75;;;;;;;;;;5035907;28;20048;-70
2021/08/08 11:56:22;;;;;;;3.50;1.45;;;;;;;;;;5036029;28;20026;-69
2021/08/08 11:58:49;;;;;;;4.28;1.77;;;;;;;;;;5035960;28;20032;-69
2021/08/08 12:01:16;;;;;;;4.40;1.90;;;;;;;;;;5036081;28;20013;-70
2021/08/08 12:03:43;;;;;;;3.05;1.73;;;;;;;;;;5035809;28;20115;-69
2021/08/08 12:06:11;;;;;;;4.80;1.80;;;;;;;;;;5035338;28;20049;-71
2021/08/08 12:08:37;;;;;;;;;;;;;;;;;;5036054;28;20025;-71
2021/08/08 12:11:03;;;;;;;3.00;1.83;;;;;;;;;;5035535;28;19955;-70
2021/08/08 12:13:29;;;;;;;3.05;1.73;;;;;;;;;;5035544;28;20041;-70
2021/08/08 12:15:55;;;;;;;7.65;2.33;;;;;;;;;;5035548;28;20022;-71
2021/08/08 12:18:27;;;;;;;3.03;1.73;;;;;;;;;;5035621;28;20022;-71
2021/08/08 12:20:54;;;;;;;4.32;1.90;;;;;;;;;;5035357;28;20021;-70
2021/08/08 12:23:22;;;;;;;5.60;1.85;;;;;;;;;;5034636;28;20021;-71
2021/08/08 12:25:47;;;;;;;;;;;;;;;;;;5035756;28;20405;-71
2021/08/08 12:28:23;;;;;;;3.87;1.80;;;;;;;;;;5035760;28;19905;-71
2021/08/08 12:30:49;;;;;;;4.32;1.50;;;;;;;;;;5035240;28;20112;-71
2021/08/08 12:33:16;;;;;;;3.13;1.67;;;;;;;;;;5035197;28;20151;-70
2021/08/08 12:35:43;;;;;;;4.88;1.88;;;;;;;;;;5034996;28;20025;-69
2021/08/08 12:38:12;;;;;;;5.35;1.80;;;;;;;;;;5035199;28;20036;-69
2021/08/08 12:40:42;;;;;;;2.63;1.58;;;;;;;;;;5035059;28;20067;-69
2021/08/08 12:43:08;;;;;;;3.95;1.70;;;;;;;;;;5035375;28;20044;-70
2021/08/08 12:45:36;;;;;;;4.53;1.73;;;;;;;;;;5034963;28;20021;-69
2021/08/08 12:48:02;;;;;;;4.35;1.88;;;;;;;;;;5033502;28;20025;-69
2021/08/08 12:50:28;;;;;;;4.80;2.05;;;;;;;;;;5034987;28;20566;-69
2021/08/08 12:52:53;;;;;;;3.38;2.10;;;;;;;;;;5034046;28;20096;-69
2021/08/08 12:55:21;;;;;;;4.07;1.63;;;;;;;;;;5035258;28;20413;-70
2021/08/08 12:57:49;;;;;;;2.28;1.55;;;;;;;;;;5034752;28;20486;-69
2021/08/08 13:00:16;;;;;;;3.72;1.63;;;;;;;;;;5034613;28;20147;-69
2021/08/08 13:02:46;;;;;;;3.20;1.90;;;;;;;;;;5034597;28;20025;-69
2021/08/08 13:05:11;;;;;;;6.53;2.10;;;;;;;;;;5034720;28;20450;-69
2021/08/08 13:07:38;;;;;;;5.78;1.98;;;;;;;;;;5034588;28;20017;-70
2021/08/08 13:10:04;;;;;;;5.90;1.80;;;;;;;;;;5034329;28;20442;-69
2021/08/08 13:12:30;;;;;;;2.97;1.77;;;;;;;;;;5034515;28;20113;-69
2021/08/08 13:14:55;;;;;;;4.68;1.95;;;;;;;;;;5034656;28;20103;-69
2021/08/08 13:17:23;;;;;;;4.03;1.77;;;;;;;;;;5034369;28;20421;-69
2021/08/08 13:19:50;;;;;;;5.60;1.98;;;;;;;;;;5034332;28;20417;-69
2021/08/08 13:22:16;;;;;;;4.65;2.03;;;;;;;;;;5034225;28;20037;-69
2021/08/08 13:24:42;;;;;;;2.67;1.80;;;;;;;;;;5034217;28;20009;-69
2021/08/08 13:27:08;;;;;;;3.03;2.00;;;;;;;;;;5034403;28;20382;-69
2021/08/08 13:29:34;;;;;;;3.00;1.60;;;;;;;;;;5034167;28;20060;-69
2021/08/08 13:32:00;;;;;;;4.32;1.75;;;;;;;;;;5033976;28;20372;-69
2021/08/08 13:34:26;;;;;;;4.13;2.00;;;;;;;;;;5034249;28;20025;-69
2021/08/08 13:36:51;;;;;;;4.05;1.67;;;;;;;;;;5034015;28;20075;-69
2021/08/08 13:39:18;;;;;;;5.68;2.20;;;;;;;;;;5034133;28;20029;-69
2021/08/08 13:41:43;;;;;;;6.25;2.10;;;;;;;;;;5033865;28;20018;-69
2021/08/08 13:44:10;;;;;;;5.35;2.25;;;;;;;;;;5033829;28;20473;-69
2021/08/08 13:46:36;;;;;;;4.05;1.80;;;;;;;;;;5033800;28;20025;-69
2021/08/08 13:49:02;;;;;;;4.28;1.90;;;;;;;;;;5033832;28;20544;-69
2021/08/08 13:51:28;;;;;;;4.38;1.83;;;;;;;;;;5034112;28;20505;-69
2021/08/08 13:53:55;;;;;;;4.35;1.70;;;;;;;;;;5033950;28;20014;-70
2021/08/08 13:56:21;;;;;;;6.25;2.22;;;;;;;;;;5033869;28;20060;-70
2021/08/08 13:58:48;;;;;;;11.02;1.95;;;;;;;;;;5033622;28;20470;-69
2021/08/08 14:01:14;;;;;;;6.32;2.08;;;;;;;;;;5033827;28;20021;-70
2021/08/08 14:03:41;;;;;;;4.70;1.98;;;;;;;;;;5033672;28;20032;-70
2021/08/08 14:06:07;;;;;;;3.83;2.03;;;;;;;;;;5033180;28;20057;-69
2021/08/08 14:08:34;;;;;;;4.78;2.00;;;;;;;;;;5033533;28;20014;-69
2021/08/08 14:10:59;;;;;;;7.05;2.05;;;;;;;;;;5033355;28;20178;-69
2021/08/08 14:13:26;;;;;;;7.00;1.65;;;;;;;;;;5033476;28;20472;-69
2021/08/08 14:15:52;;;;;;;5.28;1.80;;;;;;;;;;5032046;28;20018;-69
2021/08/08 14:18:18;;;;;;;3.85;1.90;;;;;;;;;;5033379;28;20474;-70
2021/08/08 14:20:45;;;;;;;4.90;1.88;;;;;;;;;;5033143;28;20022;-70
2021/08/08 14:23:10;;;;;;;5.03;2.00;;;;;;;;;;5033374;28;20017;-70
2021/08/08 14:25:36;;;;;;;3.05;1.83;;;;;;;;;;5033365;28;20022;-70
2021/08/08 14:28:03;;;;;;;4.85;2.05;;;;;;;;;;5033211;28;20095;-70
2021/08/08 14:30:29;;;;;;;2.50;1.50;;;;;;;;;;5033200;28;20020;-70
2021/08/08 14:32:55;;;;;;;6.53;1.85;;;;;;;;;;5032923;28;20021;-70
2021/08/08 14:35:21;;;;;;;5.75;1.60;;;;;;;;;;5033127;28;20076;-70
2021/08/08 14:37:48;;;;;;;8.18;2.13;;;;;;;;;;5032981;28;20021;-69
2021/08/08 14:40:14;;;;;;;6.07;1.80;;;;;;;;;;5033094;28;20025;-70